Portada
METAR-TAF:

METAR-TAF

Aeroports :

Novosibirsk, Rússia

latitud: 55-01N, longitud: 082-38E, altitud: 111 m

Observació

L'informe es va fer fa 12 minuts, a les 21:00 UTC
Vent 4 kt del Sud-Est, variant entre Est i Sud/Sud-Oest
Temperatura 12°C
Humitat 94%
Pressió 1020 hPa
Visibilitat: 3200 m
boirina

METAR: UNNT 142100Z 14002MPS 090V200 9999 3200SE BR NSC 12/11 Q1020 R07/090070 R16/090070 NOSIG RMK QFE755/1007

Hora: 04:12 (21:12 UTC)

Pronòstic

L'informe es va fer fa 1 hora i 12 minuts, a les 20:00 UTC
Pronòstic vàlid del 14 a les 21 UTC al 15 a les 21 UTC
Vent 6 kt del Sud-Est amb ràfegues de 16 kt
Visibilitat 10 km o més
sense núvols per sota de 1500 mi sense presència de cumulonimbus.
Temporalment
l' 14 a les 21 UTC al 15 a les 02 UTC
Visibilitat: 0150 m
Cel ennuvolat a una alçada de 200 ft
boira
Temporalment
l' 15 a les 02 UTC al 15 a les 04 UTC
Visibilitat: 3100 m
boirina

TAF: UNNT 142000Z 1421/1521 14003G08MPS CAVOK TEMPO 1421/1502 0150 FG BKN002 TEMPO 1502/1504 3100 BR

Observacions i pronòstics meteorològics de més de 4000 aeroports (METAR i TAF).

Les estacions disponibles són els punts grocs i vermells al mapa.

Posi el ratolí al punt desitjat per veure el nom de l'estació.

Feu clic per veure les observacions i els pronòstics meteorològics.

Per canviar el mapa: feu clic els botons verds amb una creu de color negre per apropar; al botó verd amb un guió per allunyar la imatge; o en les fletxes verdes per a mapes adjacents.


METAR-TAF: